Parker, North Carolina
Current Conditions -  °F | °C
As of 11:35 AM on Friday 19 Dec 2014 (Local Time) from KGEV Reporting Station
Clear Clear  
Wind Chill: 34°   Ceiling: Unl
Heat Index: 38°   Visibility: 10mi
Dew Point: 15°   Wind: 6mph
Humidity: 39%   Direction: 330°NNW
Pressure: 30.1"   Gusts: NA
Location:  36.4481°N, 81.6486°W
Report Text: KGEV 191635Z AUTO 33005KT 10SM CLR 04/M09 A3010 RMK AO2 T00351094
Loading
Personal Weather Stations






























Interactive Weather Map New forecast layout! Learn more

10-Day Weather Forecast

Advertisements
Track Severe Weather on mobile